ETD379 VRMM-OMAA
Flight info
| Callsign | ETD379 |
|---|---|
| Flight time | 3h 39m |
| Altitude | 40000 |
| Route | ELBET1A ELBET L894 KITAL P570 EMURU N563 TULBU P558 SODEX N563 NOBTO |
| Aircraft | A359/H-SDE2E3GHIJ3J4J5LM1ORWXY/LB1D1 |
Departure
| Time | 2026-05-06 03:35 |
|---|---|
| Airport | Velana International Airport (VRMM) |
Arrival
| Time | 2026-05-06 07:14 |
|---|---|
| Airport | Zayed International Airport (OMAA) |
| Time | Latitude | Longitude | Altitude | Speed | Heading |
|---|---|---|---|---|---|
| 2026-05-06 03:14 | 4.18461 | 73.52801 | 19 ft | 0 kts | 270° |
| 2026-05-06 03:23 | 4.18461 | 73.52807 | 19 ft | 2 kts | 268° |
| 2026-05-06 03:23 | 4.18460 | 73.52820 | 21 ft | 2 kts | 272° |
| 2026-05-06 03:23 | 4.18459 | 73.52833 | 21 ft | 2 kts | 280° |
| 2026-05-06 03:24 | 4.18457 | 73.52845 | 21 ft | 1 kts | 291° |
| 2026-05-06 03:24 | 4.18451 | 73.52855 | 25 ft | 2 kts | 328° |
| 2026-05-06 03:24 | 4.18440 | 73.52859 | 24 ft | 2 kts | 0° |
| 2026-05-06 03:24 | 4.18427 | 73.52859 | 24 ft | 2 kts | 3° |
| 2026-05-06 03:25 | 4.18417 | 73.52859 | 25 ft | 0 kts | 358° |
| 2026-05-06 03:25 | 4.18415 | 73.52859 | 25 ft | 0 kts | 1° |
| 2026-05-06 03:25 | 4.18416 | 73.52859 | 22 ft | 0 kts | 1° |
| 2026-05-06 03:29 | 4.18417 | 73.52859 | 22 ft | 1 kts | 1° |
| 2026-05-06 03:29 | 4.18444 | 73.52860 | 22 ft | 7 kts | 5° |
| 2026-05-06 03:30 | 4.18472 | 73.52895 | 20 ft | 6 kts | 95° |
| 2026-05-06 03:30 | 4.18430 | 73.52924 | 19 ft | 10 kts | 167° |
| 2026-05-06 03:30 | 4.18343 | 73.52928 | 19 ft | 15 kts | 179° |
| 2026-05-06 03:30 | 4.18319 | 73.52929 | 19 ft | 0 kts | 179° |
| 2026-05-06 03:31 | 4.18318 | 73.52929 | 19 ft | 1 kts | 179° |
| 2026-05-06 03:31 | 4.18287 | 73.52929 | 19 ft | 8 kts | 179° |
| 2026-05-06 03:31 | 4.18218 | 73.52941 | 19 ft | 11 kts | 147° |
| 2026-05-06 03:32 | 4.18203 | 73.52967 | 19 ft | 0 kts | 106° |
| 2026-05-06 03:32 | 4.18203 | 73.52969 | 19 ft | 2 kts | 105° |
| 2026-05-06 03:32 | 4.18198 | 73.53006 | 19 ft | 9 kts | 94° |
| 2026-05-06 03:32 | 4.18201 | 73.53063 | 19 ft | 9 kts | 75° |
| 2026-05-06 03:33 | 4.18265 | 73.53100 | 19 ft | 14 kts | 2° |
| 2026-05-06 03:33 | 4.18297 | 73.53101 | 19 ft | 0 kts | 0° |
| 2026-05-06 03:34 | 4.18310 | 73.53101 | 19 ft | 15 kts | 1° |
| 2026-05-06 03:34 | 4.18753 | 73.53102 | 19 ft | 112 kts | 360° |
| 2026-05-06 03:35 | 4.19813 | 73.53107 | 174 ft | 179 kts | 358° |
| 2026-05-06 03:35 | 4.21095 | 73.53120 | 1181 ft | 189 kts | 357° |
| 2026-05-06 03:35 | 4.22550 | 73.53110 | 1928 ft | 225 kts | 357° |
| 2026-05-06 03:35 | 4.24201 | 73.53091 | 2351 ft | 246 kts | 358° |
| 2026-05-06 03:36 | 4.25960 | 73.53088 | 2805 ft | 257 kts | 358° |
| 2026-05-06 03:36 | 4.27734 | 73.53088 | 3407 ft | 260 kts | 358° |
| 2026-05-06 03:36 | 4.29575 | 73.53088 | 4020 ft | 263 kts | 358° |
| 2026-05-06 03:36 | 4.31384 | 73.53088 | 4612 ft | 266 kts | 358° |
| 2026-05-06 03:37 | 4.33245 | 73.53087 | 5194 ft | 268 kts | 359° |
| 2026-05-06 03:37 | 4.35116 | 73.53086 | 5767 ft | 271 kts | 359° |
| 2026-05-06 03:37 | 4.37011 | 73.53086 | 6344 ft | 273 kts | 359° |
| 2026-05-06 03:37 | 4.38924 | 73.53085 | 6884 ft | 276 kts | 358° |
| 2026-05-06 03:38 | 4.40853 | 73.53046 | 7397 ft | 279 kts | 354° |
| 2026-05-06 03:38 | 4.42710 | 73.52517 | 7910 ft | 279 kts | 330° |
| 2026-05-06 03:38 | 4.44274 | 73.51367 | 8455 ft | 280 kts | 318° |
| 2026-05-06 03:38 | 4.45744 | 73.50073 | 9020 ft | 283 kts | 317° |
| 2026-05-06 03:39 | 4.47224 | 73.48762 | 9578 ft | 285 kts | 318° |
| 2026-05-06 03:39 | 4.48726 | 73.47444 | 10058 ft | 290 kts | 318° |
| 2026-05-06 03:39 | 4.50282 | 73.46084 | 10278 ft | 304 kts | 318° |
| 2026-05-06 03:39 | 4.51916 | 73.44660 | 10472 ft | 318 kts | 318° |
| 2026-05-06 03:40 | 4.53621 | 73.43178 | 10669 ft | 331 kts | 318° |
| 2026-05-06 03:40 | 4.55392 | 73.41640 | 10839 ft | 343 kts | 318° |
| 2026-05-06 03:40 | 4.57222 | 73.40052 | 11021 ft | 354 kts | 318° |
| 2026-05-06 03:40 | 4.59105 | 73.38419 | 11215 ft | 362 kts | 318° |
| 2026-05-06 03:41 | 4.61022 | 73.36755 | 11554 ft | 366 kts | 318° |
| 2026-05-06 03:41 | 4.62956 | 73.35078 | 11932 ft | 369 kts | 318° |
| 2026-05-06 03:41 | 4.64898 | 73.33392 | 12333 ft | 370 kts | 318° |
| 2026-05-06 03:41 | 4.66849 | 73.31699 | 12721 ft | 372 kts | 318° |
| 2026-05-06 03:42 | 4.68810 | 73.29998 | 13099 ft | 374 kts | 318° |
| 2026-05-06 03:42 | 4.70783 | 73.28289 | 13467 ft | 376 kts | 318° |
| 2026-05-06 03:42 | 4.72765 | 73.26567 | 13799 ft | 378 kts | 318° |
| 2026-05-06 03:42 | 4.74756 | 73.24835 | 14119 ft | 380 kts | 318° |
| 2026-05-06 03:43 | 4.76760 | 73.23093 | 14423 ft | 382 kts | 318° |
| 2026-05-06 03:43 | 4.78775 | 73.21342 | 14732 ft | 385 kts | 317° |
| 2026-05-06 03:43 | 4.80803 | 73.19579 | 15050 ft | 387 kts | 317° |
| 2026-05-06 03:43 | 4.82839 | 73.17810 | 15367 ft | 389 kts | 317° |
| 2026-05-06 03:44 | 4.84888 | 73.16029 | 15681 ft | 391 kts | 317° |
| 2026-05-06 03:44 | 4.86948 | 73.14239 | 15988 ft | 393 kts | 317° |
| 2026-05-06 03:44 | 4.89017 | 73.12441 | 16302 ft | 395 kts | 317° |
| 2026-05-06 03:44 | 4.91101 | 73.10629 | 16610 ft | 397 kts | 317° |
| 2026-05-06 03:45 | 4.93196 | 73.08808 | 16920 ft | 399 kts | 317° |
| 2026-05-06 03:45 | 4.95299 | 73.06980 | 17219 ft | 402 kts | 317° |
| 2026-05-06 03:45 | 4.97418 | 73.05137 | 17516 ft | 404 kts | 317° |
| 2026-05-06 03:45 | 4.99544 | 73.03288 | 17828 ft | 406 kts | 317° |
| 2026-05-06 03:46 | 5.01684 | 73.01427 | 18129 ft | 408 kts | 317° |
| 2026-05-06 03:46 | 5.03834 | 72.99558 | 18381 ft | 410 kts | 317° |
| 2026-05-06 03:46 | 5.05992 | 72.97680 | 18635 ft | 412 kts | 317° |
| 2026-05-06 03:46 | 5.08162 | 72.95794 | 18887 ft | 414 kts | 317° |
| 2026-05-06 03:47 | 5.10343 | 72.93896 | 19137 ft | 416 kts | 317° |
| 2026-05-06 03:47 | 5.12529 | 72.91994 | 19395 ft | 417 kts | 317° |
| 2026-05-06 03:47 | 5.14728 | 72.90081 | 19665 ft | 419 kts | 317° |
| 2026-05-06 03:47 | 5.16902 | 72.88189 | 19897 ft | 421 kts | 317° |
| 2026-05-06 03:48 | 5.19116 | 72.86263 | 20147 ft | 422 kts | 317° |
| 2026-05-06 03:48 | 5.21339 | 72.84328 | 20390 ft | 424 kts | 317° |
| 2026-05-06 03:48 | 5.23572 | 72.82384 | 20636 ft | 426 kts | 317° |
| 2026-05-06 03:48 | 5.25817 | 72.80430 | 20866 ft | 428 kts | 317° |
| 2026-05-06 03:49 | 5.28069 | 72.78469 | 21095 ft | 429 kts | 317° |
| 2026-05-06 03:49 | 5.30331 | 72.76500 | 21333 ft | 431 kts | 317° |
| 2026-05-06 03:49 | 5.32600 | 72.74524 | 21575 ft | 433 kts | 317° |
| 2026-05-06 03:49 | 5.34875 | 72.72543 | 21806 ft | 434 kts | 317° |
| 2026-05-06 03:50 | 5.37162 | 72.70551 | 22035 ft | 436 kts | 317° |
| 2026-05-06 03:50 | 5.39457 | 72.68552 | 22257 ft | 438 kts | 317° |
| 2026-05-06 03:50 | 5.41762 | 72.66544 | 22475 ft | 439 kts | 317° |
| 2026-05-06 03:50 | 5.44074 | 72.64530 | 22709 ft | 441 kts | 317° |
| 2026-05-06 03:51 | 5.46393 | 72.62509 | 22913 ft | 442 kts | 317° |
| 2026-05-06 03:51 | 5.48719 | 72.60482 | 23152 ft | 444 kts | 317° |
| 2026-05-06 03:51 | 5.51056 | 72.58446 | 23360 ft | 445 kts | 317° |
| 2026-05-06 03:51 | 5.53397 | 72.56406 | 23539 ft | 447 kts | 317° |
| 2026-05-06 03:52 | 5.55750 | 72.54355 | 23730 ft | 449 kts | 317° |
| 2026-05-06 03:52 | 5.58111 | 72.52296 | 23893 ft | 450 kts | 318° |
| 2026-05-06 03:52 | 5.60477 | 72.50234 | 24072 ft | 451 kts | 318° |
| 2026-05-06 03:52 | 5.62851 | 72.48163 | 24249 ft | 452 kts | 318° |
| 2026-05-06 03:53 | 5.65228 | 72.46091 | 24423 ft | 454 kts | 318° |
| 2026-05-06 03:53 | 5.67617 | 72.44007 | 24590 ft | 455 kts | 318° |
| 2026-05-06 03:53 | 5.70006 | 72.41923 | 24767 ft | 456 kts | 318° |
| 2026-05-06 03:53 | 5.72407 | 72.39828 | 24949 ft | 458 kts | 318° |
| 2026-05-06 03:54 | 5.74813 | 72.37730 | 25108 ft | 459 kts | 318° |
| 2026-05-06 03:54 | 5.77224 | 72.35626 | 25286 ft | 460 kts | 318° |
| 2026-05-06 03:54 | 5.79646 | 72.33513 | 25446 ft | 461 kts | 318° |
| 2026-05-06 03:54 | 5.82070 | 72.31397 | 25616 ft | 463 kts | 318° |
| 2026-05-06 03:55 | 5.84506 | 72.29271 | 25781 ft | 464 kts | 318° |
| 2026-05-06 03:55 | 5.86943 | 72.27143 | 25971 ft | 465 kts | 318° |
| 2026-05-06 03:55 | 5.89389 | 72.25007 | 26141 ft | 467 kts | 318° |
| 2026-05-06 03:55 | 5.91841 | 72.22866 | 26317 ft | 468 kts | 318° |
| 2026-05-06 03:56 | 5.94302 | 72.20719 | 26495 ft | 469 kts | 318° |
| 2026-05-06 03:56 | 5.96771 | 72.18566 | 26664 ft | 471 kts | 318° |
| 2026-05-06 03:56 | 5.99247 | 72.16403 | 26842 ft | 472 kts | 318° |
| 2026-05-06 03:56 | 6.01727 | 72.14234 | 27011 ft | 474 kts | 318° |
| 2026-05-06 03:57 | 6.04218 | 72.12056 | 27190 ft | 475 kts | 318° |
| 2026-05-06 03:57 | 6.06716 | 72.09874 | 27378 ft | 477 kts | 318° |
| 2026-05-06 03:57 | 6.09190 | 72.07713 | 27576 ft | 478 kts | 318° |
| 2026-05-06 03:57 | 6.11737 | 72.05485 | 27747 ft | 480 kts | 318° |
| 2026-05-06 03:58 | 6.14260 | 72.03280 | 27935 ft | 481 kts | 318° |
| 2026-05-06 03:58 | 6.16754 | 72.01098 | 28104 ft | 483 kts | 318° |
| 2026-05-06 03:58 | 6.19292 | 71.98878 | 28298 ft | 485 kts | 318° |
| 2026-05-06 03:58 | 6.21841 | 71.96650 | 28475 ft | 486 kts | 318° |
| 2026-05-06 03:59 | 6.24394 | 71.94418 | 28655 ft | 488 kts | 318° |
| 2026-05-06 03:59 | 6.26958 | 71.92175 | 28830 ft | 489 kts | 318° |
| 2026-05-06 03:59 | 6.29528 | 71.89927 | 29026 ft | 491 kts | 318° |
| 2026-05-06 03:59 | 6.32107 | 71.87670 | 29204 ft | 492 kts | 318° |
| 2026-05-06 04:00 | 6.34691 | 71.85409 | 29391 ft | 494 kts | 318° |
| 2026-05-06 04:00 | 6.37287 | 71.83137 | 29567 ft | 495 kts | 318° |
| 2026-05-06 04:00 | 6.39929 | 71.80908 | 29757 ft | 497 kts | 321° |
| 2026-05-06 04:00 | 6.42655 | 71.78757 | 29922 ft | 499 kts | 322° |
| 2026-05-06 04:01 | 6.45421 | 71.76638 | 30078 ft | 500 kts | 322° |
| 2026-05-06 04:01 | 6.48199 | 71.74522 | 30229 ft | 502 kts | 322° |
| 2026-05-06 04:01 | 6.50978 | 71.72394 | 30387 ft | 503 kts | 322° |
| 2026-05-06 04:01 | 6.53764 | 71.70243 | 30545 ft | 505 kts | 322° |
| 2026-05-06 04:02 | 6.56543 | 71.68082 | 30707 ft | 506 kts | 322° |
| 2026-05-06 04:02 | 6.59330 | 71.65904 | 30857 ft | 508 kts | 322° |
| 2026-05-06 04:02 | 6.62120 | 71.63717 | 31022 ft | 509 kts | 322° |
| 2026-05-06 04:02 | 6.64915 | 71.61524 | 31182 ft | 511 kts | 322° |
| 2026-05-06 04:03 | 6.67720 | 71.59323 | 31342 ft | 512 kts | 322° |
| 2026-05-06 04:03 | 6.70533 | 71.57117 | 31490 ft | 513 kts | 322° |
| 2026-05-06 04:03 | 6.73352 | 71.54906 | 31638 ft | 515 kts | 322° |
| 2026-05-06 04:03 | 6.76174 | 71.52692 | 31800 ft | 516 kts | 322° |
| 2026-05-06 04:04 | 6.79007 | 71.50471 | 31956 ft | 516 kts | 322° |
| 2026-05-06 04:04 | 6.81843 | 71.48246 | 32110 ft | 517 kts | 322° |
| 2026-05-06 04:04 | 6.84683 | 71.46018 | 32244 ft | 518 kts | 322° |
| 2026-05-06 04:04 | 6.87529 | 71.43785 | 32458 ft | 518 kts | 322° |
| 2026-05-06 04:05 | 6.90362 | 71.41562 | 32711 ft | 516 kts | 322° |
| 2026-05-06 04:05 | 6.93193 | 71.39339 | 32945 ft | 515 kts | 322° |
| 2026-05-06 04:05 | 6.95066 | 71.37869 | 33095 ft | 515 kts | 322° |
| 2026-05-06 04:05 | 6.97889 | 71.35652 | 33334 ft | 514 kts | 322° |
| 2026-05-06 04:06 | 7.00706 | 71.33441 | 33561 ft | 514 kts | 322° |
| 2026-05-06 04:06 | 7.03523 | 71.31229 | 33823 ft | 513 kts | 322° |
| 2026-05-06 04:06 | 7.06336 | 71.29020 | 34052 ft | 512 kts | 322° |
| 2026-05-06 04:06 | 7.09146 | 71.26812 | 34279 ft | 512 kts | 322° |
| 2026-05-06 04:07 | 7.11947 | 71.24611 | 34513 ft | 511 kts | 322° |
| 2026-05-06 04:07 | 7.14750 | 71.22408 | 34752 ft | 511 kts | 322° |
| 2026-05-06 04:07 | 7.17552 | 71.20206 | 34990 ft | 510 kts | 322° |
| 2026-05-06 04:07 | 7.20347 | 71.18008 | 35237 ft | 510 kts | 323° |
| 2026-05-06 04:08 | 7.23139 | 71.15813 | 35502 ft | 509 kts | 322° |
| 2026-05-06 04:08 | 7.25927 | 71.13620 | 35795 ft | 508 kts | 323° |
| 2026-05-06 04:08 | 7.28706 | 71.11435 | 36062 ft | 507 kts | 323° |
| 2026-05-06 04:08 | 7.31485 | 71.09249 | 36312 ft | 506 kts | 323° |
| 2026-05-06 04:09 | 7.34255 | 71.07070 | 36566 ft | 506 kts | 323° |
| 2026-05-06 04:09 | 7.37031 | 71.04886 | 36831 ft | 505 kts | 323° |
| 2026-05-06 04:09 | 7.39797 | 71.02708 | 37098 ft | 505 kts | 323° |
| 2026-05-06 04:09 | 7.42562 | 71.00532 | 37355 ft | 504 kts | 323° |
| 2026-05-06 04:10 | 7.45323 | 70.98359 | 37636 ft | 503 kts | 323° |
| 2026-05-06 04:10 | 7.48076 | 70.96192 | 37912 ft | 502 kts | 323° |
| 2026-05-06 04:10 | 7.50825 | 70.94027 | 38191 ft | 501 kts | 323° |
| 2026-05-06 04:10 | 7.53572 | 70.91865 | 38422 ft | 501 kts | 323° |
| 2026-05-06 04:11 | 7.56314 | 70.89702 | 38663 ft | 500 kts | 323° |
| 2026-05-06 04:11 | 7.59052 | 70.87541 | 38883 ft | 500 kts | 323° |
| 2026-05-06 04:11 | 7.61787 | 70.85381 | 39065 ft | 499 kts | 323° |
| 2026-05-06 04:11 | 7.64518 | 70.83225 | 39263 ft | 499 kts | 323° |
| 2026-05-06 04:12 | 7.67253 | 70.81065 | 39442 ft | 499 kts | 323° |
| 2026-05-06 04:12 | 7.69983 | 70.78911 | 39614 ft | 499 kts | 323° |
| 2026-05-06 04:12 | 7.72680 | 70.76781 | 39792 ft | 499 kts | 323° |
| 2026-05-06 04:12 | 7.75413 | 70.74624 | 39885 ft | 500 kts | 323° |
| 2026-05-06 04:13 | 7.80876 | 70.70309 | 39898 ft | 498 kts | 323° |
| 2026-05-06 04:13 | 7.86334 | 70.65997 | 39899 ft | 498 kts | 323° |
| 2026-05-06 04:14 | 7.91787 | 70.61687 | 39894 ft | 498 kts | 323° |
| 2026-05-06 04:14 | 7.97246 | 70.57371 | 39899 ft | 498 kts | 323° |
| 2026-05-06 04:15 | 8.02704 | 70.53054 | 39894 ft | 498 kts | 323° |
| 2026-05-06 04:15 | 8.08155 | 70.48741 | 39894 ft | 498 kts | 323° |
| 2026-05-06 04:16 | 8.13608 | 70.44426 | 39898 ft | 498 kts | 323° |
| 2026-05-06 04:16 | 8.19058 | 70.40110 | 39902 ft | 498 kts | 323° |
| 2026-05-06 04:17 | 8.24510 | 70.35792 | 39900 ft | 498 kts | 323° |
| 2026-05-06 04:17 | 8.29960 | 70.31474 | 39901 ft | 498 kts | 323° |
| 2026-05-06 04:18 | 8.35412 | 70.27153 | 39898 ft | 498 kts | 323° |
| 2026-05-06 04:18 | 8.40863 | 70.22830 | 39897 ft | 498 kts | 323° |
| 2026-05-06 04:19 | 8.46312 | 70.18508 | 39899 ft | 498 kts | 323° |
| 2026-05-06 04:19 | 8.51759 | 70.14185 | 39900 ft | 498 kts | 323° |
| 2026-05-06 04:20 | 8.57204 | 70.09863 | 39899 ft | 498 kts | 323° |
| 2026-05-06 04:20 | 8.62647 | 70.05541 | 39901 ft | 498 kts | 323° |
| 2026-05-06 04:21 | 8.68091 | 70.01216 | 39899 ft | 498 kts | 323° |
| 2026-05-06 04:21 | 8.73497 | 69.96920 | 39897 ft | 498 kts | 323° |
| 2026-05-06 04:22 | 8.78934 | 69.92597 | 39897 ft | 497 kts | 323° |
| 2026-05-06 04:23 | 8.87096 | 69.86106 | 39903 ft | 497 kts | 323° |
| 2026-05-06 04:23 | 8.92532 | 69.81780 | 39899 ft | 497 kts | 323° |
| 2026-05-06 04:24 | 8.97969 | 69.77452 | 39899 ft | 497 kts | 322° |
| 2026-05-06 04:24 | 9.03408 | 69.73120 | 39905 ft | 497 kts | 323° |
| 2026-05-06 04:25 | 9.08844 | 69.68790 | 39905 ft | 498 kts | 322° |
| 2026-05-06 04:25 | 9.14281 | 69.64457 | 39905 ft | 498 kts | 322° |
| 2026-05-06 04:26 | 9.19717 | 69.60123 | 39904 ft | 497 kts | 322° |
| 2026-05-06 04:26 | 9.25152 | 69.55786 | 39907 ft | 497 kts | 322° |
| 2026-05-06 04:27 | 9.30582 | 69.51454 | 39902 ft | 497 kts | 322° |
| 2026-05-06 04:27 | 9.36013 | 69.47118 | 39903 ft | 497 kts | 322° |
| 2026-05-06 04:28 | 9.41403 | 69.42814 | 39904 ft | 497 kts | 322° |
| 2026-05-06 04:28 | 9.46829 | 69.38478 | 39907 ft | 497 kts | 322° |
| 2026-05-06 04:29 | 9.52256 | 69.34141 | 39907 ft | 497 kts | 322° |
| 2026-05-06 04:29 | 9.57678 | 69.29805 | 39904 ft | 496 kts | 322° |
| 2026-05-06 04:30 | 9.63099 | 69.25469 | 39906 ft | 496 kts | 322° |
| 2026-05-06 04:30 | 9.68519 | 69.21131 | 39908 ft | 496 kts | 322° |
| 2026-05-06 04:31 | 9.73936 | 69.16795 | 39906 ft | 496 kts | 322° |
| 2026-05-06 04:31 | 9.79351 | 69.12457 | 39907 ft | 496 kts | 322° |
| 2026-05-06 04:32 | 9.84761 | 69.08116 | 39907 ft | 496 kts | 322° |
| 2026-05-06 04:32 | 9.90172 | 69.03772 | 39907 ft | 496 kts | 322° |
| 2026-05-06 04:33 | 9.95582 | 68.99427 | 39909 ft | 496 kts | 322° |
| 2026-05-06 04:33 | 10.00992 | 68.95082 | 39907 ft | 496 kts | 322° |
| 2026-05-06 04:34 | 10.06402 | 68.90736 | 39905 ft | 496 kts | 322° |
| 2026-05-06 04:34 | 10.11808 | 68.86390 | 39907 ft | 496 kts | 322° |
| 2026-05-06 04:35 | 10.17212 | 68.82045 | 39904 ft | 496 kts | 322° |
| 2026-05-06 04:35 | 10.22615 | 68.77698 | 39906 ft | 495 kts | 322° |
| 2026-05-06 04:36 | 10.28040 | 68.73332 | 39904 ft | 501 kts | 322° |
| 2026-05-06 04:36 | 10.33538 | 68.68905 | 39906 ft | 507 kts | 322° |
| 2026-05-06 04:37 | 10.39063 | 68.64453 | 39907 ft | 507 kts | 322° |
| 2026-05-06 04:37 | 10.44584 | 68.60003 | 39904 ft | 506 kts | 322° |
| 2026-05-06 04:38 | 10.50101 | 68.55554 | 39905 ft | 506 kts | 322° |
| 2026-05-06 04:38 | 10.55614 | 68.51105 | 39896 ft | 506 kts | 322° |
| 2026-05-06 04:39 | 10.61130 | 68.46652 | 39904 ft | 506 kts | 322° |
| 2026-05-06 04:39 | 10.66644 | 68.42201 | 39907 ft | 506 kts | 322° |
| 2026-05-06 04:40 | 10.72155 | 68.37749 | 39908 ft | 506 kts | 322° |
| 2026-05-06 04:40 | 10.77666 | 68.33294 | 39910 ft | 506 kts | 322° |
| 2026-05-06 04:41 | 10.83175 | 68.28838 | 39907 ft | 506 kts | 322° |
| 2026-05-06 04:41 | 10.88684 | 68.24382 | 39906 ft | 506 kts | 322° |
| 2026-05-06 04:42 | 10.94194 | 68.19922 | 39910 ft | 506 kts | 322° |
| 2026-05-06 04:42 | 10.99702 | 68.15461 | 39908 ft | 506 kts | 322° |
| 2026-05-06 04:43 | 11.05216 | 68.10993 | 39910 ft | 507 kts | 322° |
| 2026-05-06 04:43 | 11.10691 | 68.06554 | 39910 ft | 507 kts | 322° |
| 2026-05-06 04:44 | 11.16206 | 68.02081 | 39912 ft | 507 kts | 322° |
| 2026-05-06 04:44 | 11.21715 | 67.97610 | 39911 ft | 506 kts | 322° |
| 2026-05-06 04:45 | 11.27225 | 67.93137 | 39913 ft | 506 kts | 322° |
| 2026-05-06 04:45 | 11.32733 | 67.88664 | 39911 ft | 506 kts | 322° |
| 2026-05-06 04:46 | 11.38234 | 67.84192 | 39910 ft | 506 kts | 322° |
| 2026-05-06 04:46 | 11.43733 | 67.79721 | 39911 ft | 506 kts | 322° |
| 2026-05-06 04:47 | 11.49231 | 67.75248 | 39912 ft | 505 kts | 322° |
| 2026-05-06 04:47 | 11.54726 | 67.70776 | 39913 ft | 505 kts | 322° |
| 2026-05-06 04:48 | 11.60219 | 67.66303 | 39913 ft | 505 kts | 322° |
| 2026-05-06 04:48 | 11.65711 | 67.61828 | 39911 ft | 505 kts | 322° |
| 2026-05-06 04:49 | 11.71205 | 67.57349 | 39911 ft | 505 kts | 322° |
| 2026-05-06 04:49 | 11.76696 | 67.52870 | 39910 ft | 505 kts | 322° |
| 2026-05-06 04:50 | 11.82187 | 67.48389 | 39911 ft | 505 kts | 322° |
| 2026-05-06 04:50 | 11.87675 | 67.43907 | 39911 ft | 505 kts | 322° |
| 2026-05-06 04:51 | 11.93162 | 67.39425 | 39910 ft | 505 kts | 322° |
| 2026-05-06 04:51 | 11.98645 | 67.34946 | 39913 ft | 505 kts | 322° |
| 2026-05-06 04:52 | 12.03203 | 67.31220 | 39912 ft | 505 kts | 322° |
| 2026-05-06 04:52 | 12.09571 | 67.26009 | 39911 ft | 505 kts | 322° |
| 2026-05-06 04:53 | 12.15051 | 67.21523 | 39910 ft | 504 kts | 322° |
| 2026-05-06 04:53 | 12.20525 | 67.17041 | 39911 ft | 504 kts | 322° |
| 2026-05-06 04:54 | 12.25109 | 67.13286 | 39912 ft | 504 kts | 322° |
| 2026-05-06 04:54 | 12.30578 | 67.08803 | 39914 ft | 504 kts | 322° |
| 2026-05-06 04:55 | 12.36046 | 67.04318 | 39917 ft | 504 kts | 322° |
| 2026-05-06 04:55 | 12.41473 | 66.99866 | 39910 ft | 504 kts | 322° |
| 2026-05-06 04:56 | 12.46941 | 66.95376 | 39914 ft | 504 kts | 322° |
| 2026-05-06 04:56 | 12.52407 | 66.90886 | 39914 ft | 504 kts | 322° |
| 2026-05-06 04:57 | 12.57876 | 66.86391 | 39911 ft | 504 kts | 322° |
| 2026-05-06 04:57 | 12.63342 | 66.81895 | 39913 ft | 504 kts | 322° |
| 2026-05-06 04:58 | 12.68811 | 66.77395 | 39919 ft | 504 kts | 322° |
| 2026-05-06 04:58 | 12.74282 | 66.72891 | 39912 ft | 504 kts | 322° |
| 2026-05-06 04:59 | 12.79750 | 66.68386 | 39916 ft | 504 kts | 322° |
| 2026-05-06 04:59 | 12.85219 | 66.63877 | 39916 ft | 504 kts | 322° |
| 2026-05-06 05:00 | 12.90684 | 66.59370 | 39913 ft | 504 kts | 322° |
| 2026-05-06 05:00 | 12.96147 | 66.54862 | 39914 ft | 504 kts | 322° |
| 2026-05-06 05:01 | 13.01611 | 66.50350 | 39917 ft | 504 kts | 322° |
| 2026-05-06 05:01 | 13.07073 | 66.45837 | 39917 ft | 504 kts | 322° |
| 2026-05-06 05:02 | 13.12534 | 66.41323 | 39911 ft | 504 kts | 322° |
| 2026-05-06 05:02 | 13.17960 | 66.36834 | 39926 ft | 504 kts | 322° |
| 2026-05-06 05:03 | 13.23417 | 66.32317 | 39917 ft | 504 kts | 322° |
| 2026-05-06 05:03 | 13.28871 | 66.27800 | 39918 ft | 504 kts | 322° |
| 2026-05-06 05:04 | 13.34326 | 66.23280 | 39914 ft | 504 kts | 322° |
| 2026-05-06 05:04 | 13.39779 | 66.18759 | 39917 ft | 504 kts | 322° |
| 2026-05-06 05:05 | 13.45232 | 66.14235 | 39918 ft | 504 kts | 322° |
| 2026-05-06 05:05 | 13.50679 | 66.09713 | 39919 ft | 504 kts | 322° |
| 2026-05-06 05:06 | 13.56132 | 66.05184 | 39917 ft | 504 kts | 322° |
| 2026-05-06 05:06 | 13.61579 | 66.00657 | 39920 ft | 504 kts | 322° |
| 2026-05-06 05:07 | 13.67028 | 65.96124 | 39915 ft | 504 kts | 322° |
| 2026-05-06 05:07 | 13.72479 | 65.91589 | 39915 ft | 504 kts | 322° |
| 2026-05-06 05:08 | 13.77927 | 65.87052 | 39914 ft | 504 kts | 322° |
| 2026-05-06 05:08 | 13.83375 | 65.82513 | 39917 ft | 504 kts | 322° |
| 2026-05-06 05:09 | 13.88820 | 65.77973 | 39914 ft | 504 kts | 322° |
| 2026-05-06 05:09 | 13.94268 | 65.73428 | 39916 ft | 504 kts | 322° |
| 2026-05-06 05:10 | 13.99711 | 65.68885 | 39922 ft | 504 kts | 322° |
| 2026-05-06 05:10 | 14.05158 | 65.64335 | 39921 ft | 504 kts | 321° |
| 2026-05-06 05:11 | 14.10566 | 65.59815 | 39919 ft | 504 kts | 321° |
| 2026-05-06 05:11 | 14.16010 | 65.55262 | 39921 ft | 504 kts | 321° |
| 2026-05-06 05:12 | 14.21450 | 65.50709 | 39914 ft | 504 kts | 321° |
| 2026-05-06 05:12 | 14.26895 | 65.46150 | 39920 ft | 504 kts | 321° |
| 2026-05-06 05:13 | 14.32336 | 65.41590 | 39921 ft | 504 kts | 321° |
| 2026-05-06 05:13 | 14.37780 | 65.37025 | 39918 ft | 504 kts | 321° |
| 2026-05-06 05:14 | 14.43222 | 65.32459 | 39919 ft | 504 kts | 321° |
| 2026-05-06 05:14 | 14.48660 | 65.27894 | 39918 ft | 504 kts | 321° |
| 2026-05-06 05:15 | 14.54102 | 65.23322 | 39922 ft | 504 kts | 321° |
| 2026-05-06 05:15 | 14.59545 | 65.18746 | 39921 ft | 504 kts | 321° |
| 2026-05-06 05:16 | 14.64985 | 65.14170 | 39921 ft | 504 kts | 321° |
| 2026-05-06 05:16 | 14.70423 | 65.09587 | 39918 ft | 505 kts | 321° |
| 2026-05-06 05:17 | 14.75860 | 65.05003 | 39920 ft | 504 kts | 321° |
| 2026-05-06 05:17 | 14.81298 | 65.00417 | 39918 ft | 504 kts | 321° |
| 2026-05-06 05:18 | 14.86733 | 64.95830 | 39922 ft | 504 kts | 321° |
| 2026-05-06 05:18 | 14.92169 | 64.91238 | 39924 ft | 504 kts | 321° |
| 2026-05-06 05:19 | 14.97601 | 64.86647 | 39916 ft | 504 kts | 321° |
| 2026-05-06 05:19 | 15.03036 | 64.82051 | 39930 ft | 505 kts | 321° |
| 2026-05-06 05:20 | 15.08467 | 64.77454 | 39919 ft | 505 kts | 321° |
| 2026-05-06 05:20 | 15.13902 | 64.72852 | 39919 ft | 505 kts | 321° |
| 2026-05-06 05:21 | 15.19335 | 64.68248 | 39936 ft | 505 kts | 321° |
| 2026-05-06 05:21 | 15.24766 | 64.63642 | 39921 ft | 505 kts | 321° |
| 2026-05-06 05:22 | 15.30196 | 64.59034 | 39922 ft | 505 kts | 321° |
| 2026-05-06 05:22 | 15.35627 | 64.54422 | 39920 ft | 505 kts | 321° |
| 2026-05-06 05:23 | 15.41019 | 64.49840 | 39922 ft | 505 kts | 321° |
| 2026-05-06 05:23 | 15.49163 | 64.42914 | 39921 ft | 505 kts | 321° |
| 2026-05-06 05:24 | 15.54591 | 64.38293 | 39919 ft | 505 kts | 321° |
| 2026-05-06 05:24 | 15.60015 | 64.33672 | 39919 ft | 505 kts | 321° |
| 2026-05-06 05:25 | 15.65437 | 64.29050 | 39933 ft | 505 kts | 321° |
| 2026-05-06 05:25 | 15.70862 | 64.24422 | 39924 ft | 505 kts | 321° |
| 2026-05-06 05:26 | 15.76283 | 64.19795 | 39921 ft | 504 kts | 321° |
| 2026-05-06 05:26 | 15.81698 | 64.15168 | 39934 ft | 504 kts | 321° |
| 2026-05-06 05:27 | 15.87117 | 64.10536 | 39919 ft | 504 kts | 321° |
| 2026-05-06 05:27 | 15.92528 | 64.05907 | 39931 ft | 504 kts | 321° |
| 2026-05-06 05:28 | 15.97942 | 64.01272 | 39917 ft | 504 kts | 321° |
| 2026-05-06 05:28 | 16.03354 | 63.96635 | 39915 ft | 504 kts | 321° |
| 2026-05-06 05:29 | 16.08763 | 63.91997 | 39923 ft | 504 kts | 321° |
| 2026-05-06 05:29 | 16.14173 | 63.87355 | 39933 ft | 504 kts | 321° |
| 2026-05-06 05:30 | 16.19577 | 63.82715 | 39917 ft | 504 kts | 321° |
| 2026-05-06 05:30 | 16.24981 | 63.78072 | 39918 ft | 504 kts | 321° |
| 2026-05-06 05:31 | 16.30385 | 63.73425 | 39932 ft | 504 kts | 321° |
| 2026-05-06 05:31 | 16.35787 | 63.68776 | 39931 ft | 504 kts | 321° |
| 2026-05-06 05:32 | 16.41190 | 63.64123 | 39921 ft | 504 kts | 321° |
| 2026-05-06 05:32 | 16.46589 | 63.59471 | 39920 ft | 504 kts | 321° |
| 2026-05-06 05:33 | 16.51990 | 63.54813 | 39920 ft | 504 kts | 321° |
| 2026-05-06 05:33 | 16.57350 | 63.50186 | 39931 ft | 504 kts | 321° |
| 2026-05-06 05:34 | 16.62744 | 63.45527 | 39923 ft | 504 kts | 321° |
| 2026-05-06 05:34 | 16.68137 | 63.40865 | 39917 ft | 504 kts | 321° |
| 2026-05-06 05:35 | 16.73529 | 63.36200 | 39934 ft | 503 kts | 320° |
| 2026-05-06 05:35 | 16.78919 | 63.31535 | 39922 ft | 503 kts | 320° |
| 2026-05-06 05:36 | 16.84304 | 63.26869 | 39919 ft | 503 kts | 320° |
| 2026-05-06 05:36 | 16.89689 | 63.22200 | 39931 ft | 503 kts | 320° |
| 2026-05-06 05:37 | 16.95070 | 63.17531 | 39935 ft | 503 kts | 320° |
| 2026-05-06 05:37 | 17.00448 | 63.12862 | 39920 ft | 503 kts | 320° |
| 2026-05-06 05:38 | 17.05790 | 63.08132 | 39919 ft | 503 kts | 319° |
| 2026-05-06 05:38 | 17.11052 | 63.03314 | 39930 ft | 503 kts | 319° |
| 2026-05-06 05:39 | 17.16314 | 62.98494 | 39930 ft | 503 kts | 319° |
| 2026-05-06 05:39 | 17.21551 | 62.93719 | 39917 ft | 502 kts | 319° |
| 2026-05-06 05:40 | 17.25966 | 62.89701 | 39928 ft | 502 kts | 319° |
| 2026-05-06 05:40 | 17.32097 | 62.84121 | 39918 ft | 502 kts | 319° |
| 2026-05-06 05:41 | 17.37366 | 62.79321 | 39914 ft | 502 kts | 319° |
| 2026-05-06 05:41 | 17.42635 | 62.74514 | 39932 ft | 502 kts | 319° |
| 2026-05-06 05:42 | 17.47047 | 62.70486 | 39919 ft | 502 kts | 319° |
| 2026-05-06 05:42 | 17.52312 | 62.65676 | 39919 ft | 502 kts | 319° |
| 2026-05-06 05:43 | 17.57537 | 62.60900 | 39924 ft | 502 kts | 319° |
| 2026-05-06 05:43 | 17.62797 | 62.56088 | 39931 ft | 502 kts | 319° |
| 2026-05-06 05:44 | 17.68053 | 62.51275 | 39930 ft | 502 kts | 319° |
| 2026-05-06 05:44 | 17.73309 | 62.46459 | 39919 ft | 502 kts | 319° |
| 2026-05-06 05:45 | 17.78564 | 62.41640 | 39917 ft | 502 kts | 319° |
| 2026-05-06 05:45 | 17.83816 | 62.36818 | 39916 ft | 502 kts | 319° |
| 2026-05-06 05:46 | 17.89068 | 62.31994 | 39933 ft | 502 kts | 319° |
| 2026-05-06 05:46 | 17.94319 | 62.27166 | 39932 ft | 502 kts | 319° |
| 2026-05-06 05:47 | 17.99567 | 62.22338 | 39916 ft | 501 kts | 319° |
| 2026-05-06 05:47 | 18.04815 | 62.17505 | 39919 ft | 502 kts | 319° |
| 2026-05-06 05:48 | 18.10060 | 62.12670 | 39935 ft | 501 kts | 319° |
| 2026-05-06 05:48 | 18.15303 | 62.07834 | 39921 ft | 501 kts | 319° |
| 2026-05-06 05:49 | 18.20547 | 62.02993 | 39934 ft | 502 kts | 319° |
| 2026-05-06 05:49 | 18.25789 | 61.98149 | 39936 ft | 502 kts | 319° |
| 2026-05-06 05:50 | 18.30997 | 61.93333 | 39925 ft | 502 kts | 318° |
| 2026-05-06 05:50 | 18.36238 | 61.88483 | 39924 ft | 502 kts | 318° |
| 2026-05-06 05:51 | 18.41482 | 61.83626 | 39925 ft | 502 kts | 318° |
| 2026-05-06 05:51 | 18.46726 | 61.78765 | 39924 ft | 502 kts | 318° |
| 2026-05-06 05:52 | 18.51968 | 61.73901 | 39923 ft | 502 kts | 318° |
| 2026-05-06 05:52 | 18.57209 | 61.69033 | 39922 ft | 502 kts | 318° |
| 2026-05-06 05:53 | 18.62449 | 61.64163 | 39921 ft | 502 kts | 318° |
| 2026-05-06 05:53 | 18.67686 | 61.59292 | 39921 ft | 502 kts | 318° |
| 2026-05-06 05:54 | 18.72922 | 61.54416 | 39921 ft | 502 kts | 318° |
| 2026-05-06 05:54 | 18.78157 | 61.49539 | 39918 ft | 502 kts | 318° |
| 2026-05-06 05:55 | 18.83389 | 61.44659 | 39925 ft | 502 kts | 318° |
| 2026-05-06 05:55 | 18.88619 | 61.39778 | 39922 ft | 502 kts | 317° |
| 2026-05-06 05:56 | 18.93845 | 61.34896 | 39924 ft | 502 kts | 317° |
| 2026-05-06 05:56 | 18.99071 | 61.30008 | 39920 ft | 501 kts | 317° |
| 2026-05-06 05:57 | 19.04291 | 61.25122 | 39920 ft | 501 kts | 317° |
| 2026-05-06 05:57 | 19.09511 | 61.20232 | 39921 ft | 501 kts | 317° |
| 2026-05-06 05:58 | 19.14727 | 61.15340 | 39921 ft | 501 kts | 317° |
| 2026-05-06 05:58 | 19.19946 | 61.10446 | 39919 ft | 501 kts | 317° |
| 2026-05-06 05:59 | 19.25125 | 61.05583 | 39920 ft | 501 kts | 317° |
| 2026-05-06 05:59 | 19.30333 | 61.00688 | 39917 ft | 501 kts | 317° |
| 2026-05-06 06:00 | 19.35542 | 60.95784 | 39914 ft | 501 kts | 317° |
| 2026-05-06 06:00 | 19.40748 | 60.90883 | 39916 ft | 501 kts | 317° |
| 2026-05-06 06:01 | 19.45950 | 60.85980 | 39917 ft | 500 kts | 317° |
| 2026-05-06 06:01 | 19.51146 | 60.81077 | 39920 ft | 500 kts | 317° |
| 2026-05-06 06:02 | 19.56341 | 60.76171 | 39919 ft | 500 kts | 317° |
| 2026-05-06 06:02 | 19.61536 | 60.71263 | 39919 ft | 500 kts | 317° |
| 2026-05-06 06:03 | 19.66726 | 60.66354 | 39916 ft | 500 kts | 317° |
| 2026-05-06 06:03 | 19.71916 | 60.61440 | 39910 ft | 500 kts | 317° |
| 2026-05-06 06:04 | 19.77102 | 60.56526 | 39913 ft | 500 kts | 317° |
| 2026-05-06 06:04 | 19.82285 | 60.51610 | 39910 ft | 499 kts | 317° |
| 2026-05-06 06:05 | 19.87463 | 60.46694 | 39909 ft | 499 kts | 317° |
| 2026-05-06 06:05 | 19.92640 | 60.41775 | 39911 ft | 499 kts | 317° |
| 2026-05-06 06:06 | 19.97813 | 60.36855 | 39913 ft | 499 kts | 317° |
| 2026-05-06 06:06 | 20.02953 | 60.31968 | 39906 ft | 499 kts | 317° |
| 2026-05-06 06:07 | 20.08632 | 60.27712 | 39911 ft | 500 kts | 327° |
| 2026-05-06 06:07 | 20.14586 | 60.23876 | 39914 ft | 501 kts | 328° |
| 2026-05-06 06:08 | 20.20584 | 60.20103 | 39910 ft | 500 kts | 328° |
| 2026-05-06 06:08 | 20.26570 | 60.16326 | 39913 ft | 500 kts | 328° |
| 2026-05-06 06:09 | 20.32547 | 60.12534 | 39916 ft | 500 kts | 328° |
| 2026-05-06 06:09 | 20.38555 | 60.08713 | 39911 ft | 500 kts | 328° |
| 2026-05-06 06:10 | 20.44482 | 60.04938 | 39913 ft | 500 kts | 328° |
| 2026-05-06 06:10 | 20.50447 | 60.01137 | 39910 ft | 500 kts | 328° |
| 2026-05-06 06:11 | 20.56416 | 59.97330 | 39911 ft | 500 kts | 328° |
| 2026-05-06 06:11 | 20.62381 | 59.93522 | 39914 ft | 499 kts | 328° |
| 2026-05-06 06:12 | 20.68344 | 59.89712 | 39913 ft | 499 kts | 328° |
| 2026-05-06 06:12 | 20.74306 | 59.85899 | 39910 ft | 499 kts | 328° |
| 2026-05-06 06:13 | 20.80267 | 59.82083 | 39914 ft | 499 kts | 328° |
| 2026-05-06 06:13 | 20.86222 | 59.78267 | 39911 ft | 499 kts | 328° |
| 2026-05-06 06:14 | 20.92177 | 59.74449 | 39914 ft | 499 kts | 328° |
| 2026-05-06 06:14 | 20.98130 | 59.70627 | 39915 ft | 499 kts | 328° |
| 2026-05-06 06:15 | 21.04083 | 59.66807 | 39915 ft | 499 kts | 328° |
| 2026-05-06 06:15 | 21.10033 | 59.62977 | 39913 ft | 499 kts | 328° |
| 2026-05-06 06:16 | 21.15976 | 59.59144 | 39914 ft | 498 kts | 328° |
| 2026-05-06 06:16 | 21.21913 | 59.55314 | 39915 ft | 498 kts | 328° |
| 2026-05-06 06:17 | 21.27807 | 59.51511 | 39916 ft | 498 kts | 327° |
| 2026-05-06 06:17 | 21.33738 | 59.47677 | 39914 ft | 498 kts | 327° |
| 2026-05-06 06:18 | 21.39666 | 59.43841 | 39915 ft | 497 kts | 327° |
| 2026-05-06 06:18 | 21.45585 | 59.40008 | 39916 ft | 497 kts | 327° |
| 2026-05-06 06:19 | 21.51503 | 59.36173 | 39911 ft | 497 kts | 327° |
| 2026-05-06 06:19 | 21.57416 | 59.32336 | 39921 ft | 497 kts | 327° |
| 2026-05-06 06:20 | 21.63328 | 59.28496 | 39918 ft | 496 kts | 327° |
| 2026-05-06 06:20 | 21.69233 | 59.24659 | 39924 ft | 496 kts | 327° |
| 2026-05-06 06:21 | 21.75142 | 59.20819 | 39926 ft | 496 kts | 327° |
| 2026-05-06 06:21 | 21.81042 | 59.16980 | 39927 ft | 495 kts | 327° |
| 2026-05-06 06:22 | 21.86940 | 59.13138 | 39931 ft | 495 kts | 327° |
| 2026-05-06 06:22 | 21.92834 | 59.09294 | 39934 ft | 495 kts | 327° |
| 2026-05-06 06:23 | 21.98726 | 59.05448 | 39936 ft | 495 kts | 327° |
| 2026-05-06 06:23 | 22.04612 | 59.01601 | 39938 ft | 495 kts | 327° |
| 2026-05-06 06:24 | 22.10497 | 58.97752 | 39943 ft | 495 kts | 327° |
| 2026-05-06 06:24 | 22.16380 | 58.93901 | 39947 ft | 494 kts | 327° |
| 2026-05-06 06:25 | 22.21918 | 58.89562 | 39947 ft | 491 kts | 314° |
| 2026-05-06 06:25 | 22.26027 | 58.83764 | 39949 ft | 487 kts | 299° |
| 2026-05-06 06:26 | 22.27688 | 58.80580 | 39945 ft | 487 kts | 297° |
| 2026-05-06 06:26 | 22.30845 | 58.74120 | 39949 ft | 487 kts | 296° |
| 2026-05-06 06:27 | 22.33947 | 58.67678 | 39944 ft | 486 kts | 296° |
| 2026-05-06 06:27 | 22.37090 | 58.61211 | 39946 ft | 486 kts | 296° |
| 2026-05-06 06:28 | 22.40250 | 58.54748 | 39945 ft | 486 kts | 296° |
| 2026-05-06 06:28 | 22.43408 | 58.48291 | 39944 ft | 486 kts | 296° |
| 2026-05-06 06:29 | 22.46562 | 58.41830 | 39946 ft | 486 kts | 296° |
| 2026-05-06 06:29 | 22.49202 | 58.36417 | 39942 ft | 485 kts | 296° |
| 2026-05-06 06:30 | 22.52855 | 58.28912 | 39946 ft | 485 kts | 296° |
| 2026-05-06 06:30 | 22.55487 | 58.23499 | 39945 ft | 485 kts | 296° |
| 2026-05-06 06:31 | 22.58600 | 58.17088 | 39939 ft | 485 kts | 296° |
| 2026-05-06 06:31 | 22.61737 | 58.10621 | 39942 ft | 485 kts | 296° |
| 2026-05-06 06:32 | 22.64864 | 58.04166 | 39942 ft | 485 kts | 296° |
| 2026-05-06 06:32 | 22.67993 | 57.97699 | 39947 ft | 484 kts | 296° |
| 2026-05-06 06:33 | 22.71113 | 57.91241 | 39946 ft | 484 kts | 296° |
| 2026-05-06 06:33 | 22.74231 | 57.84781 | 39946 ft | 484 kts | 296° |
| 2026-05-06 06:34 | 22.77344 | 57.78323 | 39950 ft | 484 kts | 296° |
| 2026-05-06 06:34 | 22.80452 | 57.71865 | 39952 ft | 483 kts | 296° |
| 2026-05-06 06:35 | 22.83559 | 57.65400 | 39956 ft | 483 kts | 296° |
| 2026-05-06 06:35 | 22.86660 | 57.58940 | 39965 ft | 483 kts | 296° |
| 2026-05-06 06:36 | 22.89758 | 57.52480 | 39971 ft | 483 kts | 296° |
| 2026-05-06 06:36 | 22.92850 | 57.46022 | 39969 ft | 482 kts | 296° |
| 2026-05-06 06:37 | 22.95916 | 57.39610 | 39975 ft | 482 kts | 296° |
| 2026-05-06 06:37 | 22.99002 | 57.33148 | 39970 ft | 482 kts | 296° |
| 2026-05-06 06:38 | 23.02081 | 57.26694 | 39968 ft | 482 kts | 296° |
| 2026-05-06 06:38 | 23.05156 | 57.20233 | 39965 ft | 482 kts | 296° |
| 2026-05-06 06:39 | 23.08229 | 57.13764 | 39962 ft | 482 kts | 296° |
| 2026-05-06 06:39 | 23.11297 | 57.07301 | 39957 ft | 482 kts | 296° |
| 2026-05-06 06:40 | 23.14363 | 57.00837 | 39952 ft | 481 kts | 295° |
| 2026-05-06 06:40 | 23.17428 | 56.94366 | 39949 ft | 481 kts | 295° |
| 2026-05-06 06:41 | 23.20486 | 56.87896 | 39941 ft | 481 kts | 295° |
| 2026-05-06 06:41 | 23.23543 | 56.81424 | 39936 ft | 481 kts | 295° |
| 2026-05-06 06:42 | 23.26599 | 56.74943 | 39934 ft | 481 kts | 295° |
| 2026-05-06 06:42 | 23.29652 | 56.68461 | 39928 ft | 481 kts | 295° |
| 2026-05-06 06:43 | 23.32703 | 56.61977 | 39919 ft | 482 kts | 295° |
| 2026-05-06 06:43 | 23.35733 | 56.55526 | 39919 ft | 482 kts | 295° |
| 2026-05-06 06:44 | 23.38799 | 56.48990 | 39920 ft | 482 kts | 295° |
| 2026-05-06 06:44 | 23.41843 | 56.42495 | 39920 ft | 482 kts | 295° |
| 2026-05-06 06:45 | 23.44882 | 56.35998 | 39918 ft | 482 kts | 295° |
| 2026-05-06 06:45 | 23.47921 | 56.29492 | 39911 ft | 482 kts | 295° |
| 2026-05-06 06:46 | 23.50936 | 56.23031 | 39910 ft | 482 kts | 295° |
| 2026-05-06 06:46 | 23.53968 | 56.16524 | 39909 ft | 481 kts | 295° |
| 2026-05-06 06:47 | 23.56995 | 56.10021 | 39901 ft | 481 kts | 295° |
| 2026-05-06 06:47 | 23.60041 | 56.03466 | 39896 ft | 481 kts | 295° |
| 2026-05-06 06:48 | 23.63041 | 55.97003 | 39893 ft | 481 kts | 295° |
| 2026-05-06 06:48 | 23.66057 | 55.90493 | 39896 ft | 481 kts | 295° |
| 2026-05-06 06:49 | 23.69068 | 55.83988 | 39890 ft | 480 kts | 294° |
| 2026-05-06 06:49 | 23.72049 | 55.77544 | 39257 ft | 463 kts | 294° |
| 2026-05-06 06:49 | 23.73491 | 55.74428 | 38037 ft | 460 kts | 294° |
| 2026-05-06 06:50 | 23.74933 | 55.71303 | 36457 ft | 462 kts | 294° |
| 2026-05-06 06:50 | 23.76378 | 55.68165 | 34954 ft | 463 kts | 294° |
| 2026-05-06 06:50 | 23.77825 | 55.65022 | 33421 ft | 463 kts | 294° |
| 2026-05-06 06:50 | 23.79271 | 55.61877 | 31588 ft | 465 kts | 294° |
| 2026-05-06 06:51 | 23.80728 | 55.58701 | 29623 ft | 470 kts | 295° |
| 2026-05-06 06:51 | 23.82200 | 55.55491 | 27378 ft | 476 kts | 295° |
| 2026-05-06 06:51 | 23.83683 | 55.52257 | 25650 ft | 474 kts | 295° |
| 2026-05-06 06:51 | 23.85063 | 55.49080 | 24870 ft | 450 kts | 294° |
| 2026-05-06 06:52 | 23.86304 | 55.46053 | 24342 ft | 423 kts | 293° |
| 2026-05-06 06:52 | 23.87447 | 55.43198 | 23892 ft | 398 kts | 293° |
| 2026-05-06 06:52 | 23.88530 | 55.40508 | 23498 ft | 376 kts | 294° |
| 2026-05-06 06:52 | 23.89572 | 55.37939 | 22755 ft | 364 kts | 294° |
| 2026-05-06 06:53 | 23.90597 | 55.35427 | 21800 ft | 360 kts | 294° |
| 2026-05-06 06:53 | 23.91616 | 55.32941 | 20862 ft | 357 kts | 294° |
| 2026-05-06 06:53 | 23.92631 | 55.30475 | 19947 ft | 354 kts | 295° |
| 2026-05-06 06:53 | 23.93721 | 55.28074 | 19051 ft | 352 kts | 298° |
| 2026-05-06 06:54 | 23.94860 | 55.25715 | 18190 ft | 350 kts | 299° |
| 2026-05-06 06:54 | 23.95989 | 55.23373 | 17249 ft | 347 kts | 299° |
| 2026-05-06 06:54 | 23.97098 | 55.21052 | 16411 ft | 341 kts | 298° |
| 2026-05-06 06:54 | 23.98180 | 55.18773 | 15622 ft | 335 kts | 298° |
| 2026-05-06 06:55 | 23.99241 | 55.16530 | 14838 ft | 330 kts | 298° |
| 2026-05-06 06:55 | 24.00284 | 55.14321 | 14181 ft | 321 kts | 298° |
| 2026-05-06 06:55 | 24.01405 | 55.12299 | 13746 ft | 303 kts | 311° |
| 2026-05-06 06:55 | 24.03064 | 55.10983 | 13068 ft | 293 kts | 341° |
| 2026-05-06 06:56 | 24.05050 | 55.10745 | 12299 ft | 288 kts | 9° |
| 2026-05-06 06:56 | 24.07002 | 55.11176 | 11567 ft | 285 kts | 14° |
| 2026-05-06 06:56 | 24.08895 | 55.11678 | 10884 ft | 283 kts | 15° |
| 2026-05-06 06:56 | 24.10799 | 55.12173 | 10286 ft | 278 kts | 14° |
| 2026-05-06 06:57 | 24.12653 | 55.12642 | 10077 ft | 273 kts | 14° |
| 2026-05-06 06:57 | 24.14510 | 55.13107 | 9911 ft | 274 kts | 14° |
| 2026-05-06 06:57 | 24.16365 | 55.13567 | 9737 ft | 273 kts | 14° |
| 2026-05-06 06:57 | 24.18218 | 55.14027 | 9612 ft | 274 kts | 14° |
| 2026-05-06 06:58 | 24.20084 | 55.14487 | 9527 ft | 274 kts | 14° |
| 2026-05-06 06:58 | 24.21936 | 55.14940 | 9369 ft | 272 kts | 14° |
| 2026-05-06 06:58 | 24.23781 | 55.15393 | 9223 ft | 272 kts | 14° |
| 2026-05-06 06:58 | 24.25624 | 55.15845 | 9055 ft | 271 kts | 14° |
| 2026-05-06 06:59 | 24.27461 | 55.16295 | 8894 ft | 270 kts | 14° |
| 2026-05-06 06:59 | 24.29296 | 55.16746 | 8717 ft | 270 kts | 14° |
| 2026-05-06 06:59 | 24.31122 | 55.17193 | 8565 ft | 269 kts | 14° |
| 2026-05-06 06:59 | 24.32951 | 55.17615 | 8382 ft | 268 kts | 10° |
| 2026-05-06 07:00 | 24.34808 | 55.17532 | 8227 ft | 271 kts | 345° |
| 2026-05-06 07:00 | 24.36410 | 55.16484 | 8050 ft | 271 kts | 314° |
| 2026-05-06 07:00 | 24.37370 | 55.14716 | 7887 ft | 272 kts | 291° |
| 2026-05-06 07:00 | 24.37979 | 55.12748 | 7709 ft | 273 kts | 288° |
| 2026-05-06 07:01 | 24.38532 | 55.10827 | 7539 ft | 272 kts | 288° |
| 2026-05-06 07:01 | 24.39110 | 55.08851 | 7377 ft | 272 kts | 288° |
| 2026-05-06 07:01 | 24.39700 | 55.06882 | 7212 ft | 271 kts | 289° |
| 2026-05-06 07:01 | 24.40296 | 55.04921 | 7043 ft | 271 kts | 289° |
| 2026-05-06 07:02 | 24.40885 | 55.02965 | 6866 ft | 268 kts | 288° |
| 2026-05-06 07:02 | 24.41168 | 55.00946 | 6702 ft | 270 kts | 265° |
| 2026-05-06 07:02 | 24.40545 | 54.99044 | 6546 ft | 267 kts | 232° |
| 2026-05-06 07:02 | 24.39240 | 54.97612 | 6361 ft | 265 kts | 218° |
| 2026-05-06 07:03 | 24.37769 | 54.96405 | 6198 ft | 264 kts | 209° |
| 2026-05-06 07:03 | 24.36039 | 54.95833 | 6047 ft | 260 kts | 180° |
| 2026-05-06 07:03 | 24.34315 | 54.96278 | 5893 ft | 255 kts | 149° |
| 2026-05-06 07:03 | 24.32997 | 54.97546 | 5738 ft | 253 kts | 128° |
| 2026-05-06 07:04 | 24.31915 | 54.99061 | 5572 ft | 253 kts | 126° |
| 2026-05-06 07:04 | 24.30856 | 55.00595 | 5417 ft | 249 kts | 126° |
| 2026-05-06 07:04 | 24.29826 | 55.02070 | 5318 ft | 239 kts | 126° |
| 2026-05-06 07:04 | 24.28826 | 55.03488 | 5120 ft | 232 kts | 126° |
| 2026-05-06 07:05 | 24.27851 | 55.04863 | 5024 ft | 227 kts | 127° |
| 2026-05-06 07:05 | 24.26812 | 55.06159 | 4884 ft | 227 kts | 137° |
| 2026-05-06 07:05 | 24.25439 | 55.07003 | 4768 ft | 229 kts | 162° |
| 2026-05-06 07:05 | 24.23849 | 55.07070 | 4663 ft | 233 kts | 189° |
| 2026-05-06 07:06 | 24.22368 | 55.06335 | 4587 ft | 238 kts | 212° |
| 2026-05-06 07:06 | 24.21076 | 55.05203 | 4411 ft | 238 kts | 222° |
| 2026-05-06 07:06 | 24.20152 | 55.03692 | 4186 ft | 242 kts | 248° |
| 2026-05-06 07:06 | 24.19956 | 55.01870 | 3970 ft | 244 kts | 277° |
| 2026-05-06 07:07 | 24.20576 | 55.00164 | 3972 ft | 243 kts | 303° |
| 2026-05-06 07:07 | 24.21586 | 54.98673 | 3965 ft | 245 kts | 308° |
| 2026-05-06 07:07 | 24.22554 | 54.97137 | 3956 ft | 244 kts | 302° |
| 2026-05-06 07:07 | 24.23435 | 54.95557 | 3969 ft | 243 kts | 301° |
| 2026-05-06 07:08 | 24.24303 | 54.93953 | 3983 ft | 244 kts | 301° |
| 2026-05-06 07:08 | 24.25165 | 54.92348 | 4003 ft | 245 kts | 301° |
| 2026-05-06 07:08 | 24.26027 | 54.90736 | 4006 ft | 244 kts | 301° |
| 2026-05-06 07:08 | 24.26884 | 54.89132 | 4018 ft | 244 kts | 302° |
| 2026-05-06 07:09 | 24.27742 | 54.87530 | 4024 ft | 244 kts | 301° |
| 2026-05-06 07:09 | 24.28615 | 54.85938 | 4056 ft | 243 kts | 303° |
| 2026-05-06 07:09 | 24.29562 | 54.84448 | 4011 ft | 231 kts | 308° |
| 2026-05-06 07:09 | 24.30509 | 54.83101 | 3963 ft | 215 kts | 310° |
| 2026-05-06 07:10 | 24.31399 | 54.81853 | 3858 ft | 201 kts | 310° |
| 2026-05-06 07:10 | 24.32239 | 54.80682 | 3750 ft | 189 kts | 310° |
| 2026-05-06 07:10 | 24.33029 | 54.79578 | 3588 ft | 181 kts | 310° |
| 2026-05-06 07:10 | 24.33798 | 54.78503 | 3358 ft | 177 kts | 309° |
| 2026-05-06 07:11 | 24.34536 | 54.77464 | 3215 ft | 167 kts | 309° |
| 2026-05-06 07:11 | 24.35241 | 54.76469 | 2969 ft | 165 kts | 310° |
| 2026-05-06 07:11 | 24.35935 | 54.75496 | 2690 ft | 160 kts | 309° |
| 2026-05-06 07:11 | 24.36628 | 54.74539 | 2369 ft | 160 kts | 308° |
| 2026-05-06 07:12 | 24.37103 | 54.73878 | 2158 ft | 161 kts | 307° |
| 2026-05-06 07:12 | 24.37793 | 54.72916 | 1877 ft | 158 kts | 307° |
| 2026-05-06 07:12 | 24.38479 | 54.71991 | 1585 ft | 156 kts | 308° |
| 2026-05-06 07:12 | 24.39159 | 54.71062 | 1344 ft | 156 kts | 308° |
| 2026-05-06 07:13 | 24.39843 | 54.70136 | 1101 ft | 155 kts | 306° |
| 2026-05-06 07:13 | 24.40506 | 54.69197 | 838 ft | 155 kts | 302° |
| 2026-05-06 07:13 | 24.41102 | 54.68237 | 580 ft | 153 kts | 300° |
| 2026-05-06 07:13 | 24.41762 | 54.67324 | 311 ft | 146 kts | 299° |
| 2026-05-06 07:14 | 24.42356 | 54.66453 | 122 ft | 140 kts | 306° |
| 2026-05-06 07:14 | 24.42899 | 54.65679 | 100 ft | 111 kts | 308° |
| 2026-05-06 07:14 | 24.43204 | 54.65261 | 101 ft | 42 kts | 307° |
| 2026-05-06 07:14 | 24.43325 | 54.65093 | 99 ft | 42 kts | 309° |
| 2026-05-06 07:15 | 24.43586 | 54.64878 | 100 ft | 26 kts | 336° |
| 2026-05-06 07:15 | 24.43723 | 54.64810 | 100 ft | 20 kts | 327° |
| 2026-05-06 07:15 | 24.43811 | 54.64762 | 101 ft | 14 kts | 5° |
| 2026-05-06 07:15 | 24.43910 | 54.64827 | 101 ft | 21 kts | 37° |
| 2026-05-06 07:16 | 24.44046 | 54.64943 | 99 ft | 29 kts | 38° |
| 2026-05-06 07:16 | 24.44208 | 54.65082 | 99 ft | 31 kts | 39° |
| 2026-05-06 07:16 | 24.44298 | 54.65158 | 101 ft | 14 kts | 34° |
| 2026-05-06 07:16 | 24.44387 | 54.65140 | 99 ft | 15 kts | 307° |
| 2026-05-06 07:17 | 24.44452 | 54.65035 | 101 ft | 18 kts | 307° |
| 2026-05-06 07:17 | 24.44563 | 54.64875 | 100 ft | 18 kts | 307° |
| 2026-05-06 07:17 | 24.44597 | 54.64811 | 101 ft | 12 kts | 282° |
| 2026-05-06 07:17 | 24.44592 | 54.64721 | 100 ft | 13 kts | 285° |
| 2026-05-06 07:18 | 24.44648 | 54.64631 | 100 ft | 16 kts | 310° |
| 2026-05-06 07:18 | 24.44690 | 54.64566 | 99 ft | 8 kts | 277° |
| 2026-05-06 07:18 | 24.44669 | 54.64517 | 98 ft | 4 kts | 236° |
| 2026-05-06 07:18 | 24.44653 | 54.64493 | 100 ft | 0 kts | 233° |